createdAt,value
2018-12-11T00:00:09.134Z,63.70
2018-12-11T00:00:42.604Z,63.60
2018-12-11T00:01:16.740Z,63.50
2018-12-11T00:01:50.216Z,63.60
2018-12-11T00:02:23.732Z,63.60
2018-12-11T00:02:57.169Z,63.50
2018-12-11T00:03:30.654Z,63.40
2018-12-11T00:04:04.191Z,63.50
2018-12-11T00:04:38.236Z,63.50
2018-12-11T00:05:11.705Z,63.60
2018-12-11T00:05:45.326Z,63.70
2018-12-11T00:06:18.829Z,63.60
2018-12-11T00:06:52.304Z,63.70
2018-12-11T00:07:25.875Z,63.70
2018-12-11T00:07:59.355Z,63.70
2018-12-11T00:08:32.867Z,63.60
2018-12-11T00:09:06.875Z,64.30
2018-12-11T00:09:40.371Z,63.50
2018-12-11T00:10:14.321Z,63.50
2018-12-11T00:10:47.828Z,63.50
2018-12-11T00:11:21.844Z,63.50
2018-12-11T00:11:55.291Z,63.30
2018-12-11T00:12:28.828Z,63.30
2018-12-11T00:13:02.313Z,63.30
2018-12-11T00:13:35.842Z,63.40
2018-12-11T00:14:09.310Z,63.50
2018-12-11T00:14:42.734Z,63.60
2018-12-11T00:15:16.204Z,63.60
2018-12-11T00:15:49.661Z,63.60
2018-12-11T00:16:23.933Z,63.50
2018-12-11T00:16:57.427Z,63.40
2018-12-11T00:17:31.163Z,63.20
2018-12-11T00:18:04.791Z,63.40
2018-12-11T00:18:38.397Z,63.50
2018-12-11T00:19:11.922Z,63.40
2018-12-11T00:19:45.691Z,63.50
2018-12-11T00:20:19.123Z,63.40
2018-12-11T00:20:52.613Z,63.30
2018-12-11T00:21:26.095Z,63.40
2018-12-11T00:22:00.163Z,63.60
2018-12-11T00:22:33.599Z,63.70
2018-12-11T00:23:07.114Z,63.70
2018-12-11T00:23:40.649Z,63.60
2018-12-11T00:24:14.437Z,63.30
2018-12-11T00:24:47.921Z,63.20
2018-12-11T00:25:21.476Z,63.30
2018-12-11T00:25:54.998Z,63.50
2018-12-11T00:26:28.675Z,63.30
2018-12-11T00:27:02.195Z,63.00
2018-12-11T00:27:35.667Z,63.30
2018-12-11T00:28:09.114Z,63.50
2018-12-11T00:28:42.635Z,63.50
2018-12-11T00:29:16.136Z,63.50
2018-12-11T00:29:49.656Z,63.40
2018-12-11T00:30:23.245Z,63.40
2018-12-11T00:30:56.696Z,63.50
2018-12-11T00:31:30.135Z,63.50
2018-12-11T00:32:03.783Z,63.60
2018-12-11T00:32:37.464Z,63.70
2018-12-11T00:33:11.078Z,63.70
2018-12-11T00:33:44.590Z,63.70
2018-12-11T00:34:18.067Z,63.70
2018-12-11T00:34:51.656Z,63.60
2018-12-11T00:35:25.984Z,63.40
2018-12-11T00:35:59.397Z,63.20
2018-12-11T00:36:32.884Z,63.10
2018-12-11T00:37:06.339Z,63.40
2018-12-11T00:37:39.847Z,63.60
2018-12-11T00:38:13.254Z,64.40
2018-12-11T00:38:47.370Z,63.70
2018-12-11T00:39:20.802Z,63.60
2018-12-11T00:39:54.256Z,63.50
2018-12-11T00:40:27.822Z,63.80
2018-12-11T00:41:01.341Z,63.90
2018-12-11T00:41:34.792Z,63.70
2018-12-11T00:42:08.447Z,63.60
2018-12-11T00:42:41.906Z,63.70
2018-12-11T00:43:15.363Z,63.70
2018-12-11T00:43:48.804Z,63.50
2018-12-11T00:44:22.265Z,63.50
2018-12-11T00:44:55.714Z,63.60
2018-12-11T00:45:29.268Z,63.70
2018-12-11T00:46:02.738Z,63.90
2018-12-11T00:46:37.109Z,63.80
2018-12-11T00:47:10.558Z,63.80
2018-12-11T00:47:43.996Z,63.70
2018-12-11T00:48:17.394Z,63.60
2018-12-11T00:48:50.856Z,63.60
2018-12-11T00:49:24.886Z,63.80
2018-12-11T00:49:58.359Z,63.80
2018-12-11T00:50:31.866Z,63.80
2018-12-11T00:51:05.383Z,63.80
2018-12-11T00:51:38.874Z,63.80
2018-12-11T00:52:12.315Z,63.70
2018-12-11T00:52:46.628Z,64.00
2018-12-11T00:53:20.178Z,63.80
2018-12-11T00:53:53.676Z,63.90
2018-12-11T00:54:27.201Z,63.80
2018-12-11T00:55:00.792Z,63.70
2018-12-11T00:55:34.318Z,63.60
2018-12-11T00:56:07.729Z,63.50
2018-12-11T00:56:41.230Z,63.60
2018-12-11T00:57:14.723Z,63.80
2018-12-11T00:57:48.262Z,63.80
2018-12-11T00:58:21.744Z,64.00
2018-12-11T00:58:55.272Z,63.80
2018-12-11T00:59:28.886Z,64.00
2018-12-11T01:00:02.511Z,64.00
2018-12-11T01:00:35.975Z,64.00
2018-12-11T01:01:09.438Z,64.00
2018-12-11T01:01:42.945Z,63.90
2018-12-11T01:02:16.363Z,63.80
2018-12-11T01:02:49.836Z,63.90
2018-12-11T01:03:23.284Z,63.90
2018-12-11T01:03:57.613Z,63.90
2018-12-11T01:04:31.102Z,64.00
2018-12-11T01:05:05.005Z,64.10
2018-12-11T01:05:38.834Z,64.20
2018-12-11T01:06:12.297Z,64.20
2018-12-11T01:06:45.739Z,64.20
2018-12-11T01:07:19.234Z,64.20
2018-12-11T01:07:52.697Z,64.10
2018-12-11T01:08:28.415Z,64.20
2018-12-11T01:09:01.925Z,64.10
2018-12-11T01:09:35.387Z,63.90
2018-12-11T01:10:10.369Z,64.00
2018-12-11T01:10:43.841Z,63.90
2018-12-11T01:11:17.313Z,63.70
2018-12-11T01:11:50.769Z,63.50
2018-12-11T01:12:24.205Z,63.60
2018-12-11T01:12:57.676Z,63.70
2018-12-11T01:13:31.288Z,63.70
2018-12-11T01:14:04.903Z,63.70
2018-12-11T01:14:38.317Z,63.90
2018-12-11T01:15:11.781Z,64.00
2018-12-11T01:15:45.237Z,64.10
2018-12-11T01:16:18.778Z,64.10
2018-12-11T01:16:52.377Z,64.10
2018-12-11T01:17:25.885Z,64.10
2018-12-11T01:17:59.450Z,64.00
2018-12-11T01:18:33.012Z,63.90
2018-12-11T01:19:06.582Z,63.90
2018-12-11T01:19:40.046Z,64.00
2018-12-11T01:20:13.501Z,63.90
2018-12-11T01:20:47.443Z,63.90
2018-12-11T01:21:20.950Z,63.90
2018-12-11T01:21:54.647Z,63.90
2018-12-11T01:22:28.305Z,63.90
2018-12-11T01:23:01.774Z,63.80
2018-12-11T01:23:35.261Z,63.70
2018-12-11T01:24:08.766Z,63.70
2018-12-11T01:24:42.436Z,63.60
2018-12-11T01:25:15.915Z,63.70
2018-12-11T01:25:49.334Z,63.70
2018-12-11T01:26:23.322Z,63.50
2018-12-11T01:26:56.762Z,63.40
2018-12-11T01:27:30.799Z,63.50
2018-12-11T01:28:04.419Z,63.60
2018-12-11T01:28:37.879Z,63.60
2018-12-11T01:29:11.377Z,63.50
2018-12-11T01:29:44.881Z,63.70
2018-12-11T01:30:18.422Z,63.70
2018-12-11T01:30:51.886Z,63.60
2018-12-11T01:31:26.074Z,63.80
2018-12-11T01:31:59.532Z,63.90
2018-12-11T01:32:33.008Z,63.90
2018-12-11T01:33:06.500Z,63.90
2018-12-11T01:33:40.010Z,63.80
2018-12-11T01:34:13.508Z,63.80
2018-12-11T01:34:46.961Z,63.60
2018-12-11T01:35:20.466Z,63.60
2018-12-11T01:35:54.933Z,63.60
2018-12-11T01:36:28.441Z,63.80
2018-12-11T01:37:01.949Z,63.90
2018-12-11T01:37:35.965Z,63.90
2018-12-11T01:38:09.876Z,63.90
2018-12-11T01:38:43.346Z,63.90
2018-12-11T01:39:16.825Z,64.00
2018-12-11T01:39:50.314Z,63.90
2018-12-11T01:40:23.782Z,63.80
2018-12-11T01:40:57.262Z,63.80
2018-12-11T01:41:30.803Z,63.70
2018-12-11T01:42:04.902Z,63.70
2018-12-11T01:42:38.355Z,63.80
2018-12-11T01:43:11.791Z,63.80
2018-12-11T01:43:45.271Z,63.90
2018-12-11T01:44:18.750Z,63.90
2018-12-11T01:44:52.286Z,63.90
2018-12-11T01:45:25.783Z,63.90
2018-12-11T01:45:59.219Z,63.90
2018-12-11T01:46:32.733Z,63.80
2018-12-11T01:47:06.232Z,63.80
2018-12-11T01:47:39.733Z,63.70
2018-12-11T01:48:16.194Z,63.90
2018-12-11T01:48:49.657Z,64.10
2018-12-11T01:49:23.142Z,64.00
2018-12-11T01:49:56.653Z,64.10
2018-12-11T01:50:30.131Z,64.10
2018-12-11T01:51:03.632Z,63.90
2018-12-11T01:51:37.078Z,64.10
2018-12-11T01:52:10.617Z,63.90
2018-12-11T01:52:44.977Z,63.90
2018-12-11T01:53:18.478Z,64.00
2018-12-11T01:53:51.931Z,64.00
2018-12-11T01:54:25.441Z,63.90
2018-12-11T01:54:58.871Z,63.80
2018-12-11T01:55:33.001Z,63.80
2018-12-11T01:56:06.493Z,63.70
2018-12-11T01:56:39.993Z,63.80
2018-12-11T01:57:13.479Z,63.90
2018-12-11T01:57:46.985Z,64.10
2018-12-11T01:58:20.449Z,64.10
2018-12-11T01:58:53.918Z,64.10
2018-12-11T01:59:27.405Z,64.30
2018-12-11T02:00:00.880Z,64.40
2018-12-11T02:00:35.262Z,64.30
2018-12-11T02:01:08.723Z,64.40
2018-12-11T02:01:42.147Z,64.50
2018-12-11T02:02:15.650Z,64.60
2018-12-11T02:02:50.260Z,64.50
2018-12-11T02:03:23.655Z,64.50
2018-12-11T02:03:57.135Z,64.40
2018-12-11T02:04:30.612Z,64.40
2018-12-11T02:05:04.401Z,64.40
2018-12-11T02:05:37.952Z,64.30
2018-12-11T02:06:11.424Z,64.20
2018-12-11T02:06:45.101Z,64.30
2018-12-11T02:07:18.617Z,64.30
2018-12-11T02:07:52.275Z,64.20
2018-12-11T02:08:25.767Z,64.30
2018-12-11T02:08:59.250Z,64.30
2018-12-11T02:09:32.739Z,64.40
2018-12-11T02:10:06.630Z,64.50
2018-12-11T02:10:40.117Z,64.50
2018-12-11T02:11:13.595Z,64.50
2018-12-11T02:11:47.117Z,64.40
2018-12-11T02:12:20.649Z,64.50
2018-12-11T02:12:54.586Z,64.40
2018-12-11T02:13:28.369Z,64.30
2018-12-11T02:14:01.881Z,64.50
2018-12-11T02:14:35.353Z,64.50
2018-12-11T02:15:09.074Z,64.50
2018-12-11T02:15:42.489Z,64.60
2018-12-11T02:16:15.967Z,64.60
2018-12-11T02:16:49.489Z,64.60
2018-12-11T02:17:23.038Z,64.70
2018-12-11T02:17:56.567Z,64.70
2018-12-11T02:18:30.112Z,64.80
2018-12-11T02:19:03.612Z,64.70
2018-12-11T02:19:37.622Z,64.80
2018-12-11T02:20:11.094Z,64.80
2018-12-11T02:20:44.557Z,64.80
2018-12-11T02:21:18.034Z,64.80
2018-12-11T02:21:51.500Z,64.90
2018-12-11T02:22:25.050Z,64.80
2018-12-11T02:22:58.502Z,64.80
2018-12-11T02:23:32.034Z,64.80
2018-12-11T02:24:05.517Z,64.90
2018-12-11T02:24:39.000Z,64.80
2018-12-11T02:25:12.590Z,64.80
2018-12-11T02:25:46.029Z,64.80
2018-12-11T02:26:19.542Z,64.90
2018-12-11T02:26:53.081Z,65.60
2018-12-11T02:27:26.589Z,64.90
2018-12-11T02:28:00.067Z,65.00
2018-12-11T02:28:33.721Z,65.10
2018-12-11T02:29:07.199Z,65.00
2018-12-11T02:29:40.675Z,65.00
2018-12-11T02:30:14.131Z,65.00
2018-12-11T02:30:47.563Z,64.90
2018-12-11T02:31:21.177Z,64.80
2018-12-11T02:31:54.720Z,64.90
2018-12-11T02:32:28.369Z,64.90
2018-12-11T02:33:01.849Z,65.10
2018-12-11T02:33:35.445Z,65.10
2018-12-11T02:34:08.936Z,65.10
2018-12-11T02:34:42.403Z,65.00
2018-12-11T02:35:15.887Z,65.00
2018-12-11T02:35:49.322Z,65.10
2018-12-11T02:36:22.806Z,65.10
2018-12-11T02:36:56.338Z,65.20
2018-12-11T02:37:29.812Z,65.00
2018-12-11T02:38:03.271Z,65.10
2018-12-11T02:38:37.180Z,65.80
2018-12-11T02:39:10.893Z,65.00
2018-12-11T02:39:44.401Z,65.10
2018-12-11T02:40:17.836Z,65.00
2018-12-11T02:40:51.364Z,65.10
2018-12-11T02:41:25.083Z,64.90
2018-12-11T02:41:58.570Z,65.00
2018-12-11T02:42:32.077Z,65.00
2018-12-11T02:43:05.593Z,64.90
2018-12-11T02:43:39.978Z,64.90
2018-12-11T02:44:14.017Z,64.80
2018-12-11T02:44:47.486Z,64.80
2018-12-11T02:45:20.911Z,64.80
2018-12-11T02:45:54.398Z,64.80
2018-12-11T02:46:27.909Z,64.80
2018-12-11T02:47:01.465Z,64.80
2018-12-11T02:47:35.682Z,64.70
2018-12-11T02:48:09.352Z,64.60
2018-12-11T02:48:43.331Z,64.60
2018-12-11T02:49:16.806Z,64.60
2018-12-11T02:49:50.398Z,64.60
2018-12-11T02:50:23.884Z,64.70
2018-12-11T02:50:57.402Z,64.60
2018-12-11T02:51:30.894Z,64.40
2018-12-11T02:52:04.324Z,64.40
2018-12-11T02:52:38.097Z,64.40
2018-12-11T02:53:11.616Z,64.40
2018-12-11T02:53:45.090Z,64.30
2018-12-11T02:54:18.571Z,64.20
2018-12-11T02:54:52.745Z,64.30
2018-12-11T02:55:26.264Z,64.30
2018-12-11T02:56:00.312Z,64.40
2018-12-11T02:56:33.881Z,64.40
2018-12-11T02:57:07.390Z,64.30
2018-12-11T02:57:40.855Z,64.30
2018-12-11T02:58:14.348Z,64.30
2018-12-11T02:58:48.233Z,64.30
2018-12-11T02:59:21.738Z,64.40
2018-12-11T02:59:55.202Z,64.10
2018-12-11T03:00:28.700Z,64.20
2018-12-11T03:01:02.190Z,64.20
2018-12-11T03:01:36.131Z,64.30
2018-12-11T03:02:10.058Z,64.30
2018-12-11T03:02:43.525Z,64.30
2018-12-11T03:03:17.102Z,64.20
2018-12-11T03:03:50.628Z,64.10
2018-12-11T03:04:24.074Z,64.00
2018-12-11T03:04:57.477Z,64.10
2018-12-11T03:05:31.550Z,64.30
2018-12-11T03:06:05.053Z,64.50
2018-12-11T03:06:38.543Z,64.50
2018-12-11T03:07:12.029Z,64.60
2018-12-11T03:07:45.467Z,64.40
2018-12-11T03:08:18.951Z,65.10
2018-12-11T03:08:52.535Z,64.50
2018-12-11T03:09:26.144Z,64.70
2018-12-11T03:09:59.741Z,64.60
2018-12-11T03:10:33.205Z,64.60
2018-12-11T03:11:06.954Z,64.60
2018-12-11T03:11:40.443Z,64.50
2018-12-11T03:12:13.897Z,64.50
2018-12-11T03:12:47.369Z,65.30
2018-12-11T03:13:21.460Z,64.60
2018-12-11T03:13:54.955Z,64.70
2018-12-11T03:14:28.486Z,64.50
2018-12-11T03:15:01.977Z,64.60
2018-12-11T03:15:35.510Z,64.60
2018-12-11T03:16:09.528Z,64.60
2018-12-11T03:16:43.011Z,64.60
2018-12-11T03:17:16.456Z,64.30
2018-12-11T03:17:49.923Z,65.30
2018-12-11T03:18:23.445Z,64.70
2018-12-11T03:18:56.877Z,64.60
2018-12-11T03:19:31.092Z,64.60
2018-12-11T03:20:05.632Z,64.70
2018-12-11T03:20:39.105Z,64.80
2018-12-11T03:21:12.696Z,64.60
2018-12-11T03:21:46.116Z,64.60
2018-12-11T03:22:19.579Z,64.70
2018-12-11T03:22:53.054Z,64.80
2018-12-11T03:23:26.627Z,64.90
2018-12-11T03:24:00.073Z,65.00
2018-12-11T03:24:33.581Z,64.90
2018-12-11T03:25:07.207Z,64.80
2018-12-11T03:25:40.659Z,64.80
2018-12-11T03:26:14.181Z,64.80
2018-12-11T03:26:48.432Z,64.80
2018-12-11T03:27:21.994Z,64.90
2018-12-11T03:27:55.800Z,64.80
2018-12-11T03:28:29.235Z,65.40
2018-12-11T03:29:02.807Z,64.90
2018-12-11T03:29:36.942Z,64.60
2018-12-11T03:30:10.499Z,64.70
2018-12-11T03:30:44.210Z,64.70
2018-12-11T03:31:17.708Z,64.80
2018-12-11T03:31:51.208Z,64.70
2018-12-11T03:32:24.737Z,64.60
2018-12-11T03:32:58.227Z,64.60
2018-12-11T03:33:31.786Z,64.70
2018-12-11T03:34:05.297Z,65.20
2018-12-11T03:34:39.412Z,64.40
2018-12-11T03:35:12.894Z,64.50
2018-12-11T03:35:46.365Z,64.70
2018-12-11T03:36:19.843Z,64.70
2018-12-11T03:36:53.842Z,64.90
2018-12-11T03:37:27.360Z,64.80
2018-12-11T03:38:01.011Z,64.80
2018-12-11T03:38:34.443Z,64.80
2018-12-11T03:39:08.200Z,64.90
2018-12-11T03:39:42.303Z,64.90
2018-12-11T03:40:15.810Z,64.80
2018-12-11T03:40:49.307Z,64.80
2018-12-11T03:41:22.767Z,64.60
2018-12-11T03:41:56.345Z,64.70
2018-12-11T03:42:30.057Z,64.70
2018-12-11T03:43:03.655Z,64.80
2018-12-11T03:43:37.175Z,64.60
2018-12-11T03:44:10.640Z,64.70
2018-12-11T03:44:44.092Z,64.80
2018-12-11T03:45:17.926Z,64.90
2018-12-11T03:45:51.397Z,65.00
2018-12-11T03:46:24.926Z,65.00
2018-12-11T03:46:58.732Z,64.80
2018-12-11T03:47:32.184Z,64.80
2018-12-11T03:48:05.663Z,64.90
2018-12-11T03:48:39.191Z,65.00
2018-12-11T03:49:12.699Z,65.00
2018-12-11T03:49:46.245Z,65.10
2018-12-11T03:50:19.784Z,65.20
2018-12-11T03:50:53.202Z,65.30
2018-12-11T03:51:26.783Z,65.40
2018-12-11T03:52:00.265Z,65.30
2018-12-11T03:52:33.727Z,65.50
2018-12-11T03:53:07.831Z,66.10
2018-12-11T03:53:41.309Z,65.40
2018-12-11T03:54:14.815Z,65.40
2018-12-11T03:54:48.270Z,65.40
2018-12-11T03:55:21.704Z,65.20
2018-12-11T03:55:55.169Z,65.20
2018-12-11T03:56:29.350Z,65.30
2018-12-11T03:57:02.858Z,65.40
2018-12-11T03:57:36.357Z,65.30
2018-12-11T03:58:09.829Z,65.50
2018-12-11T03:58:43.591Z,65.40
2018-12-11T03:59:17.053Z,65.30
2018-12-11T03:59:50.546Z,65.30
2018-12-11T04:00:24.031Z,65.30
2018-12-11T04:00:57.509Z,65.10
2018-12-11T04:01:31.017Z,65.20
2018-12-11T04:02:04.704Z,65.20
2018-12-11T04:02:38.262Z,65.20
2018-12-11T04:03:11.928Z,65.30
2018-12-11T04:03:46.035Z,65.40
2018-12-11T04:04:19.463Z,65.50
2018-12-11T04:04:53.110Z,65.50
2018-12-11T04:05:26.622Z,65.70
2018-12-11T04:06:00.160Z,65.50
2018-12-11T04:06:33.620Z,65.50
2018-12-11T04:07:07.074Z,65.50
2018-12-11T04:07:40.582Z,65.40
2018-12-11T04:08:14.077Z,65.50
2018-12-11T04:08:47.578Z,65.50
2018-12-11T04:09:21.996Z,65.50
2018-12-11T04:09:55.450Z,65.40
2018-12-11T04:10:28.967Z,65.70
2018-12-11T04:11:02.409Z,65.50
2018-12-11T04:11:35.832Z,65.50
2018-12-11T04:12:09.630Z,65.50
2018-12-11T04:12:43.158Z,65.40
2018-12-11T04:13:16.570Z,65.50
2018-12-11T04:13:50.029Z,65.40
2018-12-11T04:14:23.581Z,65.30
2018-12-11T04:14:57.162Z,65.50
2018-12-11T04:15:31.466Z,65.40
2018-12-11T04:16:04.989Z,65.30
2018-12-11T04:16:38.742Z,65.30
2018-12-11T04:17:12.263Z,65.50
2018-12-11T04:17:45.714Z,66.30
2018-12-11T04:18:19.194Z,65.70
2018-12-11T04:18:52.814Z,65.70
2018-12-11T04:19:26.408Z,65.50
2018-12-11T04:20:00.355Z,65.60
2018-12-11T04:20:33.793Z,65.60
2018-12-11T04:21:07.367Z,65.50
2018-12-11T04:21:41.561Z,65.40
2018-12-11T04:22:15.054Z,65.30
2018-12-11T04:22:48.622Z,65.30
2018-12-11T04:23:22.124Z,65.50
2018-12-11T04:23:55.521Z,65.40
2018-12-11T04:24:29.095Z,65.30
2018-12-11T04:25:05.247Z,65.40
2018-12-11T04:25:38.727Z,65.40
2018-12-11T04:26:12.201Z,65.30
2018-12-11T04:26:46.368Z,65.30
2018-12-11T04:27:19.884Z,64.90
2018-12-11T04:27:53.310Z,65.00
2018-12-11T04:28:27.587Z,65.20
2018-12-11T04:29:01.166Z,65.20
2018-12-11T04:29:34.638Z,65.40
2018-12-11T04:30:09.288Z,65.30
2018-12-11T04:30:42.822Z,65.20
2018-12-11T04:31:16.315Z,65.20
2018-12-11T04:31:49.766Z,65.20
2018-12-11T04:32:23.244Z,65.20
2018-12-11T04:32:56.725Z,65.10
2018-12-11T04:33:30.361Z,65.20
2018-12-11T04:34:04.052Z,65.30
2018-12-11T04:34:37.589Z,65.30
2018-12-11T04:35:11.238Z,65.20
2018-12-11T04:35:45.650Z,65.30
2018-12-11T04:36:19.262Z,65.40
2018-12-11T04:36:52.743Z,65.30
2018-12-11T04:37:26.599Z,65.30
2018-12-11T04:38:00.504Z,65.20
2018-12-11T04:38:33.935Z,65.30
2018-12-11T04:39:07.622Z,65.30
2018-12-11T04:39:41.149Z,65.30
2018-12-11T04:40:14.631Z,65.20
2018-12-11T04:40:48.053Z,65.20
2018-12-11T04:41:21.553Z,65.30
2018-12-11T04:41:55.679Z,65.20
2018-12-11T04:42:29.138Z,65.20
2018-12-11T04:43:02.647Z,65.30
2018-12-11T04:43:36.125Z,65.30
2018-12-11T04:44:09.632Z,65.50
2018-12-11T04:44:44.054Z,65.40
2018-12-11T04:45:17.525Z,65.30
2018-12-11T04:45:51.000Z,65.50
2018-12-11T04:46:25.073Z,65.60
2018-12-11T04:46:58.554Z,65.70
2018-12-11T04:47:31.978Z,65.60
2018-12-11T04:48:05.405Z,65.50
2018-12-11T04:48:39.023Z,65.50
2018-12-11T04:49:12.434Z,65.40
2018-12-11T04:49:46.544Z,65.30
2018-12-11T04:50:20.056Z,65.30
2018-12-11T04:50:53.564Z,65.20
2018-12-11T04:51:27.102Z,65.20
2018-12-11T04:52:00.635Z,65.20
2018-12-11T04:52:34.173Z,65.20
2018-12-11T04:53:09.166Z,65.30
2018-12-11T04:53:42.678Z,65.20
2018-12-11T04:54:16.451Z,65.20
2018-12-11T04:54:50.204Z,65.30
2018-12-11T04:55:23.606Z,65.30
2018-12-11T04:55:57.070Z,65.30
2018-12-11T04:56:30.577Z,65.20
2018-12-11T04:57:04.005Z,65.00
2018-12-11T04:57:37.489Z,64.90
2018-12-11T04:58:10.918Z,64.90
2018-12-11T04:58:44.453Z,64.90
2018-12-11T04:59:18.396Z,64.90
2018-12-11T04:59:52.800Z,64.90
2018-12-11T05:00:26.310Z,64.90
2018-12-11T05:00:59.834Z,64.90
2018-12-11T05:01:33.318Z,64.90
2018-12-11T05:02:06.814Z,64.90
2018-12-11T05:02:40.313Z,65.00
2018-12-11T05:03:14.025Z,65.20
2018-12-11T05:03:48.290Z,65.30
2018-12-11T05:04:21.738Z,65.20
2018-12-11T05:04:55.958Z,65.10
2018-12-11T05:05:29.480Z,64.90
2018-12-11T05:06:02.949Z,65.00
2018-12-11T05:06:37.144Z,65.00
2018-12-11T05:07:10.656Z,65.10
2018-12-11T05:07:44.149Z,65.00
2018-12-11T05:08:17.852Z,65.40
2018-12-11T05:08:51.334Z,65.40
2018-12-11T05:09:24.810Z,65.40
2018-12-11T05:09:58.301Z,65.40
2018-12-11T05:10:31.790Z,65.40
2018-12-11T05:11:06.218Z,65.40
2018-12-11T05:11:40.650Z,65.30
2018-12-11T05:12:14.166Z,65.20
2018-12-11T05:12:47.955Z,65.00
2018-12-11T05:13:22.007Z,65.20
2018-12-11T05:13:56.084Z,65.20
2018-12-11T05:14:29.834Z,65.30
2018-12-11T05:15:04.053Z,65.20
2018-12-11T05:15:37.535Z,65.20
2018-12-11T05:16:11.052Z,65.30
2018-12-11T05:16:44.810Z,65.20
2018-12-11T05:17:18.313Z,65.20
2018-12-11T05:17:51.785Z,65.40
2018-12-11T05:18:25.250Z,65.30
2018-12-11T05:18:59.342Z,65.30
2018-12-11T05:19:32.827Z,65.50
2018-12-11T05:20:06.537Z,65.40
2018-12-11T05:20:40.006Z,65.40
2018-12-11T05:21:13.535Z,65.30
2018-12-11T05:21:47.093Z,65.20
2018-12-11T05:22:20.750Z,65.10
2018-12-11T05:22:54.251Z,65.30
2018-12-11T05:23:28.822Z,65.30
2018-12-11T05:24:02.290Z,65.30
2018-12-11T05:24:35.771Z,65.30
2018-12-11T05:25:09.445Z,65.20
2018-12-11T05:25:42.910Z,65.10
2018-12-11T05:26:16.362Z,65.10
2018-12-11T05:26:49.859Z,65.20
2018-12-11T05:27:23.282Z,65.30
2018-12-11T05:27:56.691Z,65.30
2018-12-11T05:28:30.137Z,65.30
2018-12-11T05:29:04.310Z,65.00
2018-12-11T05:29:37.769Z,65.00
2018-12-11T05:30:11.234Z,64.90
2018-12-11T05:30:44.986Z,65.00
2018-12-11T05:31:18.928Z,65.10
2018-12-11T05:31:52.397Z,65.20
2018-12-11T05:32:26.541Z,65.40
2018-12-11T05:33:00.013Z,65.50
2018-12-11T05:33:33.450Z,65.50
2018-12-11T05:34:06.945Z,65.60
2018-12-11T05:34:40.418Z,65.70
2018-12-11T05:35:13.936Z,65.70
2018-12-11T05:35:48.298Z,65.60
2018-12-11T05:36:21.846Z,65.60
2018-12-11T05:36:55.445Z,65.60
2018-12-11T05:37:29.262Z,65.50
2018-12-11T05:38:02.729Z,65.50
2018-12-11T05:38:36.181Z,65.50
2018-12-11T05:39:09.748Z,65.60
2018-12-11T05:39:43.787Z,65.60
2018-12-11T05:40:17.261Z,65.50
2018-12-11T05:40:50.805Z,65.60
2018-12-11T05:41:24.343Z,65.60
2018-12-11T05:41:58.086Z,65.80
2018-12-11T05:42:31.497Z,65.70
2018-12-11T05:43:05.703Z,65.50
2018-12-11T05:43:39.739Z,65.50
2018-12-11T05:44:13.153Z,65.40
2018-12-11T05:44:46.665Z,65.50
2018-12-11T05:45:20.178Z,65.40
2018-12-11T05:45:53.653Z,65.50
2018-12-11T05:46:27.173Z,65.70
2018-12-11T05:47:00.607Z,65.60
2018-12-11T05:47:34.115Z,65.60
2018-12-11T05:48:07.585Z,65.50
2018-12-11T05:48:41.061Z,65.50
2018-12-11T05:49:14.499Z,65.50
2018-12-11T05:49:48.517Z,65.50
2018-12-11T05:50:21.953Z,65.40
2018-12-11T05:50:56.497Z,65.10
2018-12-11T05:51:30.034Z,65.40
2018-12-11T05:52:03.542Z,65.10
2018-12-11T05:52:37.960Z,65.30
2018-12-11T05:53:11.717Z,65.50
2018-12-11T05:53:45.227Z,65.30
2018-12-11T05:54:18.661Z,65.20
2018-12-11T05:54:52.403Z,65.30
2018-12-11T05:55:25.924Z,65.20
2018-12-11T05:55:59.357Z,65.10
2018-12-11T05:56:33.338Z,65.10
2018-12-11T05:57:06.837Z,65.00
2018-12-11T05:57:40.481Z,65.00
2018-12-11T05:58:14.005Z,65.00
2018-12-11T05:58:47.500Z,65.00
2018-12-11T05:59:20.967Z,65.00
2018-12-11T05:59:54.468Z,65.00
2018-12-11T06:00:27.982Z,65.00
2018-12-11T06:01:01.506Z,64.80
2018-12-11T06:01:34.960Z,64.70
2018-12-11T06:02:08.641Z,64.80
2018-12-11T06:02:42.153Z,64.70
2018-12-11T06:03:15.589Z,64.70
2018-12-11T06:03:49.048Z,64.80
2018-12-11T06:04:23.818Z,64.80
2018-12-11T06:04:57.326Z,65.10
2018-12-11T06:05:30.849Z,64.90
2018-12-11T06:06:04.501Z,64.80
2018-12-11T06:06:37.999Z,64.80
2018-12-11T06:07:11.492Z,64.80
2018-12-11T06:07:44.985Z,64.90
2018-12-11T06:08:18.482Z,65.00
2018-12-11T06:08:52.029Z,65.00
2018-12-11T06:09:25.496Z,64.90
2018-12-11T06:09:59.106Z,65.10
2018-12-11T06:10:32.631Z,65.10
2018-12-11T06:11:06.129Z,65.10
2018-12-11T06:11:39.788Z,65.10
2018-12-11T06:12:13.289Z,65.10
2018-12-11T06:12:47.074Z,64.90
2018-12-11T06:13:21.377Z,64.90
2018-12-11T06:13:55.588Z,64.90
2018-12-11T06:14:29.067Z,65.00
2018-12-11T06:15:02.541Z,65.00
2018-12-11T06:15:36.003Z,65.00
2018-12-11T06:16:09.605Z,64.90
2018-12-11T06:16:43.556Z,65.00
2018-12-11T06:17:17.066Z,65.10
2018-12-11T06:17:50.574Z,65.20
2018-12-11T06:18:24.062Z,65.10
2018-12-11T06:18:57.526Z,65.20
2018-12-11T06:19:31.010Z,65.20
2018-12-11T06:20:05.098Z,65.20
2018-12-11T06:20:38.633Z,65.20
2018-12-11T06:21:12.234Z,65.30
2018-12-11T06:21:45.731Z,65.30
2018-12-11T06:22:19.387Z,65.30
2018-12-11T06:22:52.838Z,65.50
2018-12-11T06:23:26.351Z,65.20
2018-12-11T06:23:59.837Z,65.10
2018-12-11T06:24:33.305Z,65.10
2018-12-11T06:25:06.774Z,65.00
2018-12-11T06:25:40.270Z,65.00
2018-12-11T06:26:13.750Z,65.10
2018-12-11T06:26:47.293Z,65.10
2018-12-11T06:27:20.769Z,65.10
2018-12-11T06:27:54.219Z,65.00
2018-12-11T06:28:27.734Z,65.10
2018-12-11T06:29:01.203Z,65.00
2018-12-11T06:29:34.710Z,65.10
2018-12-11T06:30:09.468Z,65.00
2018-12-11T06:30:42.896Z,65.10
2018-12-11T06:31:16.318Z,65.00
2018-12-11T06:31:49.834Z,64.80
2018-12-11T06:32:24.458Z,64.80
2018-12-11T06:32:57.953Z,64.90
2018-12-11T06:33:31.455Z,65.00
2018-12-11T06:34:04.921Z,65.10
2018-12-11T06:34:38.409Z,65.20
2018-12-11T06:35:12.483Z,65.10
2018-12-11T06:35:45.979Z,65.10
2018-12-11T06:36:19.431Z,65.00
2018-12-11T06:36:53.139Z,64.90
2018-12-11T06:37:26.650Z,65.00
2018-12-11T06:38:00.133Z,65.00
2018-12-11T06:38:34.156Z,65.10
2018-12-11T06:39:08.217Z,65.10
2018-12-11T06:39:41.719Z,65.10
2018-12-11T06:40:15.243Z,65.10
2018-12-11T06:40:49.386Z,65.10
2018-12-11T06:41:22.871Z,64.90
2018-12-11T06:41:56.337Z,64.90
2018-12-11T06:42:29.788Z,65.00
2018-12-11T06:43:03.279Z,65.00
2018-12-11T06:43:37.442Z,65.00
2018-12-11T06:44:10.882Z,65.00
2018-12-11T06:44:44.378Z,65.00
2018-12-11T06:45:17.949Z,65.00
2018-12-11T06:45:51.599Z,65.20
2018-12-11T06:46:25.180Z,65.30
2018-12-11T06:46:58.690Z,65.20
2018-12-11T06:47:32.324Z,65.20
2018-12-11T06:48:05.867Z,65.20
2018-12-11T06:48:39.362Z,65.00
2018-12-11T06:49:12.882Z,64.90
2018-12-11T06:49:46.383Z,65.00
2018-12-11T06:50:20.411Z,65.20
2018-12-11T06:50:53.888Z,65.40
2018-12-11T06:51:28.312Z,65.20
2018-12-11T06:52:01.791Z,65.10
2018-12-11T06:52:35.342Z,65.10
2018-12-11T06:53:08.861Z,65.10
2018-12-11T06:53:42.923Z,65.40
2018-12-11T06:54:16.421Z,65.20
2018-12-11T06:54:49.905Z,65.30
2018-12-11T06:55:23.336Z,65.30
2018-12-11T06:55:56.875Z,65.40
2018-12-11T06:56:30.379Z,65.20
2018-12-11T06:57:03.863Z,65.20
2018-12-11T06:57:37.324Z,65.20
2018-12-11T06:58:11.760Z,65.10
2018-12-11T06:58:45.292Z,65.20
2018-12-11T06:59:19.199Z,65.30
2018-12-11T06:59:53.205Z,65.20
2018-12-11T07:00:27.207Z,65.20
2018-12-11T07:01:00.638Z,65.30
2018-12-11T07:01:34.101Z,65.20
2018-12-11T07:02:07.662Z,65.20
2018-12-11T07:02:41.158Z,65.20
2018-12-11T07:03:14.681Z,65.20
2018-12-11T07:03:48.263Z,65.20
2018-12-11T07:04:21.726Z,65.30
2018-12-11T07:04:55.240Z,65.30
2018-12-11T07:05:29.218Z,65.40
2018-12-11T07:06:02.693Z,65.30
2018-12-11T07:06:36.190Z,65.20
2018-12-11T07:07:09.638Z,65.10
2018-12-11T07:07:43.842Z,65.10
2018-12-11T07:08:18.425Z,65.10
2018-12-11T07:08:51.903Z,65.10
2018-12-11T07:09:25.437Z,65.20
2018-12-11T07:09:59.772Z,65.20
2018-12-11T07:10:33.252Z,65.40
2018-12-11T07:11:06.761Z,65.40
2018-12-11T07:11:41.347Z,65.40
2018-12-11T07:12:14.806Z,65.30
2018-12-11T07:12:48.256Z,65.50